sensor_id;sensor_type;location;lat;lon;timestamp;pressure;altitude;pressure_sealevel;temperature;humidity
25350;BME280;13302;48.796;11.978;2023-04-07T00:02:06;96856.97;;;5.72;28.80
25350;BME280;13302;48.796;11.978;2023-04-07T00:04:53;96855.34;;;5.71;28.91
25350;BME280;13302;48.796;11.978;2023-04-07T00:07:40;96863.41;;;5.68;29.01
25350;BME280;13302;48.796;11.978;2023-04-07T00:10:42;96856.66;;;5.65;28.88
25350;BME280;13302;48.796;11.978;2023-04-07T00:13:29;96856.66;;;5.65;28.90
25350;BME280;13302;48.796;11.978;2023-04-07T00:16:16;96850.81;;;5.67;29.00
25350;BME280;13302;48.796;11.978;2023-04-07T00:19:03;96853.56;;;5.67;28.81
25350;BME280;13302;48.796;11.978;2023-04-07T00:21:50;96858.09;;;5.71;28.86
25350;BME280;13302;48.796;11.978;2023-04-07T00:24:37;96853.91;;;5.74;28.81
25350;BME280;13302;48.796;11.978;2023-04-07T00:27:24;96848.59;;;5.77;28.91
25350;BME280;13302;48.796;11.978;2023-04-07T00:30:12;96848.44;;;5.82;28.96
25350;BME280;13302;48.796;11.978;2023-04-07T00:33:01;96851.84;;;5.88;28.80
25350;BME280;13302;48.796;11.978;2023-04-07T00:35:48;96844.28;;;5.93;28.92
25350;BME280;13302;48.796;11.978;2023-04-07T00:38:35;96844.91;;;5.99;28.87
25350;BME280;13302;48.796;11.978;2023-04-07T00:41:22;96851.69;;;6.02;28.79
25350;BME280;13302;48.796;11.978;2023-04-07T00:44:09;96836.81;;;6.02;28.74
25350;BME280;13302;48.796;11.978;2023-04-07T00:46:56;96838.94;;;6.06;28.72
25350;BME280;13302;48.796;11.978;2023-04-07T00:49:43;96842.50;;;6.06;28.76
25350;BME280;13302;48.796;11.978;2023-04-07T00:52:31;96832.31;;;6.07;28.83
25350;BME280;13302;48.796;11.978;2023-04-07T00:55:19;96833.94;;;6.08;28.68
25350;BME280;13302;48.796;11.978;2023-04-07T00:58:06;96818.28;;;6.08;28.53
25350;BME280;13302;48.796;11.978;2023-04-07T01:01:23;96822.16;;;6.07;28.59
25350;BME280;13302;48.796;11.978;2023-04-07T01:04:23;96822.16;;;6.07;28.77
25350;BME280;13302;48.796;11.978;2023-04-07T01:07:26;96818.13;;;6.05;28.73
25350;BME280;13302;48.796;11.978;2023-04-07T01:10:36;96814.09;;;6.02;28.80
25350;BME280;13302;48.796;11.978;2023-04-07T01:13:35;96810.03;;;5.99;28.95
25350;BME280;13302;48.796;11.978;2023-04-07T01:16:39;96812.94;;;5.94;29.04
25350;BME280;13302;48.796;11.978;2023-04-07T01:19:35;96804.88;;;5.89;28.94
25350;BME280;13302;48.796;11.978;2023-04-07T01:22:39;96801.47;;;5.84;29.02
25350;BME280;13302;48.796;11.978;2023-04-07T01:29:10;96796.16;;;5.79;29.02
25350;BME280;13302;48.796;11.978;2023-04-07T01:32:03;96804.38;;;5.79;29.06
25350;BME280;13302;48.796;11.978;2023-04-07T01:34:53;96797.28;;;5.78;29.04
25350;BME280;13302;48.796;11.978;2023-04-07T01:37:42;96799.53;;;5.76;28.92
25350;BME280;13302;48.796;11.978;2023-04-07T01:40:33;96802.13;;;5.72;29.00
25350;BME280;13302;48.796;11.978;2023-04-07T01:43:22;96802.28;;;5.67;29.17
25350;BME280;13302;48.796;11.978;2023-04-07T01:46:10;96792.25;;;5.63;29.04
25350;BME280;13302;48.796;11.978;2023-04-07T01:48:57;96795.16;;;5.58;29.06
25350;BME280;13302;48.796;11.978;2023-04-07T01:51:45;96792.59;;;5.52;29.28
25350;BME280;13302;48.796;11.978;2023-04-07T01:54:36;96783.69;;;5.47;29.24
25350;BME280;13302;48.796;11.978;2023-04-07T01:57:23;96783.53;;;5.43;29.23
25350;BME280;13302;48.796;11.978;2023-04-07T02:00:16;96777.06;;;5.39;29.29
25350;BME280;13302;48.796;11.978;2023-04-07T02:03:12;96785.44;;;5.34;29.26
25350;BME280;13302;48.796;11.978;2023-04-07T02:06:08;96782.22;;;5.32;29.29
25350;BME280;13302;48.796;11.978;2023-04-07T02:09:04;96775.44;;;5.30;29.38
25350;BME280;13302;48.796;11.978;2023-04-07T02:11:54;96783.47;;;5.26;29.53
25350;BME280;13302;48.796;11.978;2023-04-07T02:14:44;96778.31;;;5.25;29.67
25350;BME280;13302;48.796;11.978;2023-04-07T02:17:37;96775.22;;;5.18;29.37
25350;BME280;13302;48.796;11.978;2023-04-07T02:20:25;96781.66;;;5.13;29.59
25350;BME280;13302;48.796;11.978;2023-04-07T02:23:14;96776.31;;;5.08;29.57
25350;BME280;13302;48.796;11.978;2023-04-07T02:26:02;96774.56;;;5.03;29.67
25350;BME280;13302;48.796;11.978;2023-04-07T02:28:49;96769.22;;;4.98;29.72
25350;BME280;13302;48.796;11.978;2023-04-07T02:31:36;96767.44;;;4.94;29.89
25350;BME280;13302;48.796;11.978;2023-04-07T02:34:23;96767.25;;;4.90;29.95
25350;BME280;13302;48.796;11.978;2023-04-07T02:37:10;96770.13;;;4.85;30.18
25350;BME280;13302;48.796;11.978;2023-04-07T02:39:57;96764.47;;;4.82;30.16
25350;BME280;13302;48.796;11.978;2023-04-07T02:42:45;96757.69;;;4.79;30.33
25350;BME280;13302;48.796;11.978;2023-04-07T02:45:33;96773.13;;;4.75;30.40
25350;BME280;13302;48.796;11.978;2023-04-07T02:48:20;96770.72;;;4.74;30.41
25350;BME280;13302;48.796;11.978;2023-04-07T02:51:07;96772.13;;;4.71;30.35
25350;BME280;13302;48.796;11.978;2023-04-07T02:53:54;96771.34;;;4.71;30.40
25350;BME280;13302;48.796;11.978;2023-04-07T02:56:42;96774.38;;;4.69;30.63
25350;BME280;13302;48.796;11.978;2023-04-07T02:59:29;96776.31;;;4.69;30.82
25350;BME280;13302;48.796;11.978;2023-04-07T03:02:16;96779.84;;;4.69;30.89
25350;BME280;13302;48.796;11.978;2023-04-07T03:05:03;96770.03;;;4.68;30.87
25350;BME280;13302;48.796;11.978;2023-04-07T03:07:50;96771.63;;;4.69;30.81
25350;BME280;13302;48.796;11.978;2023-04-07T03:10:37;96767.78;;;4.70;30.75
25350;BME280;13302;48.796;11.978;2023-04-07T03:13:26;96769.38;;;4.71;30.74
25350;BME280;13302;48.796;11.978;2023-04-07T03:16:15;96768.28;;;4.72;30.71
25350;BME280;13302;48.796;11.978;2023-04-07T03:19:15;96755.41;;;4.73;30.50
25350;BME280;13302;48.796;11.978;2023-04-07T03:22:06;96751.56;;;4.74;30.73
25350;BME280;13302;48.796;11.978;2023-04-07T03:24:56;96749.94;;;4.73;30.72
25350;BME280;13302;48.796;11.978;2023-04-07T03:27:44;96751.34;;;4.70;30.74
25350;BME280;13302;48.796;11.978;2023-04-07T03:30:33;96754.41;;;4.69;30.66
25350;BME280;13302;48.796;11.978;2023-04-07T03:33:20;96759.88;;;4.69;30.71
25350;BME280;13302;48.796;11.978;2023-04-07T03:36:07;96755.03;;;4.66;30.63
25350;BME280;13302;48.796;11.978;2023-04-07T03:38:55;96757.28;;;4.63;30.70
25350;BME280;13302;48.796;11.978;2023-04-07T03:41:42;96755.97;;;4.61;30.49
25350;BME280;13302;48.796;11.978;2023-04-07T03:44:29;96757.41;;;4.58;30.52
25350;BME280;13302;48.796;11.978;2023-04-07T03:47:16;96761.59;;;4.56;30.51
25350;BME280;13302;48.796;11.978;2023-04-07T03:50:09;96758.69;;;4.52;30.51
25350;BME280;13302;48.796;11.978;2023-04-07T03:53:06;96763.16;;;4.48;30.52
25350;BME280;13302;48.796;11.978;2023-04-07T03:55:54;96760.72;;;4.47;30.60
25350;BME280;13302;48.796;11.978;2023-04-07T03:59:00;96758.31;;;4.45;30.49
25350;BME280;13302;48.796;11.978;2023-04-07T04:01:51;96760.56;;;4.43;30.62
25350;BME280;13302;48.796;11.978;2023-04-07T04:04:38;96761.19;;;4.40;30.71
25350;BME280;13302;48.796;11.978;2023-04-07T04:07:27;96754.41;;;4.38;30.64
25350;BME280;13302;48.796;11.978;2023-04-07T04:10:21;96753.91;;;4.36;30.61
25350;BME280;13302;48.796;11.978;2023-04-07T04:13:11;96754.22;;;4.34;30.66
25350;BME280;13302;48.796;11.978;2023-04-07T04:16:00;96758.41;;;4.32;30.65
25350;BME280;13302;48.796;11.978;2023-04-07T04:18:48;96750.50;;;4.30;30.71
25350;BME280;13302;48.796;11.978;2023-04-07T04:21:36;96750.00;;;4.28;30.83
25350;BME280;13302;48.796;11.978;2023-04-07T04:24:23;96747.09;;;4.25;30.63
25350;BME280;13302;48.796;11.978;2023-04-07T04:27:13;96752.38;;;4.21;30.66
25350;BME280;13302;48.796;11.978;2023-04-07T04:30:00;96743.97;;;4.18;30.69
25350;BME280;13302;48.796;11.978;2023-04-07T04:32:54;96748.16;;;4.15;30.75
25350;BME280;13302;48.796;11.978;2023-04-07T04:35:50;96742.50;;;4.11;30.84
25350;BME280;13302;48.796;11.978;2023-04-07T04:38:39;96746.34;;;4.10;30.86
25350;BME280;13302;48.796;11.978;2023-04-07T04:41:34;96734.94;;;4.08;30.90
25350;BME280;13302;48.796;11.978;2023-04-07T04:44:22;96749.72;;;4.07;30.99
25350;BME280;13302;48.796;11.978;2023-04-07T04:47:09;96740.22;;;4.05;30.95
25350;BME280;13302;48.796;11.978;2023-04-07T04:49:59;96742.13;;;4.04;30.99
25350;BME280;13302;48.796;11.978;2023-04-07T04:52:47;96735.34;;;4.02;31.16
25350;BME280;13302;48.796;11.978;2023-04-07T04:55:41;96743.06;;;4.00;31.10
25350;BME280;13302;48.796;11.978;2023-04-07T04:58:39;96745.81;;;4.00;31.17
25350;BME280;13302;48.796;11.978;2023-04-07T05:01:27;96743.56;;;4.02;31.15
25350;BME280;13302;48.796;11.978;2023-04-07T05:04:22;96745.47;;;4.01;31.13
25350;BME280;13302;48.796;11.978;2023-04-07T05:07:18;96743.56;;;4.02;31.23
25350;BME280;13302;48.796;11.978;2023-04-07T05:10:06;96743.25;;;4.03;31.13
25350;BME280;13302;48.796;11.978;2023-04-07T05:12:56;96742.44;;;4.03;31.25
25350;BME280;13302;48.796;11.978;2023-04-07T05:15:43;96744.88;;;4.04;30.94
25350;BME280;13302;48.796;11.978;2023-04-07T05:18:32;96748.72;;;4.03;31.21
25350;BME280;13302;48.796;11.978;2023-04-07T05:21:19;96747.91;;;4.03;31.39
25350;BME280;13302;48.796;11.978;2023-04-07T05:24:09;96747.91;;;4.03;31.28
25350;BME280;13302;48.796;11.978;2023-04-07T05:26:57;96748.72;;;4.03;31.35
25350;BME280;13302;48.796;11.978;2023-04-07T05:29:45;96748.41;;;4.05;31.49
25350;BME280;13302;48.796;11.978;2023-04-07T05:32:40;96750.53;;;4.08;31.55
25350;BME280;13302;48.796;11.978;2023-04-07T05:35:37;96740.88;;;4.10;31.79
25350;BME280;13302;48.796;11.978;2023-04-07T05:38:24;96743.78;;;4.14;31.99
25350;BME280;13302;48.796;11.978;2023-04-07T05:41:15;96741.22;;;4.18;32.05
25350;BME280;13302;48.796;11.978;2023-04-07T05:44:02;96746.41;;;4.19;32.11
25350;BME280;13302;48.796;11.978;2023-04-07T05:46:53;96749.16;;;4.19;32.00
25350;BME280;13302;48.796;11.978;2023-04-07T05:49:41;96754.31;;;4.21;32.46
25350;BME280;13302;48.796;11.978;2023-04-07T05:52:32;96754.50;;;4.24;32.23
25350;BME280;13302;48.796;11.978;2023-04-07T05:55:28;96751.94;;;4.28;32.28
25350;BME280;13302;48.796;11.978;2023-04-07T05:58:17;96751.00;;;4.32;32.20
25350;BME280;13302;48.796;11.978;2023-04-07T06:01:09;96752.16;;;4.40;32.56
25350;BME280;13302;48.796;11.978;2023-04-07T06:03:56;96748.78;;;4.43;32.78
25350;BME280;13302;48.796;11.978;2023-04-07T06:06:46;96754.44;;;4.46;32.70
25350;BME280;13302;48.796;11.978;2023-04-07T06:09:33;96751.41;;;4.48;33.00
25350;BME280;13302;48.796;11.978;2023-04-07T06:12:20;96760.13;;;4.50;33.20
25350;BME280;13302;48.796;11.978;2023-04-07T06:15:07;96754.81;;;4.53;33.21
25350;BME280;13302;48.796;11.978;2023-04-07T06:17:54;96752.91;;;4.62;33.13
25350;BME280;13302;48.796;11.978;2023-04-07T06:20:43;96739.00;;;4.73;33.28
25350;BME280;13302;48.796;11.978;2023-04-07T06:23:30;96741.13;;;4.84;33.32
25350;BME280;13302;48.796;11.978;2023-04-07T06:26:17;96735.84;;;4.96;33.51
25350;BME280;13302;48.796;11.978;2023-04-07T06:29:04;96736.03;;;5.08;33.87
25350;BME280;13302;48.796;11.978;2023-04-07T06:31:51;96737.38;;;5.20;33.79
25350;BME280;13302;48.796;11.978;2023-04-07T06:34:38;96738.69;;;5.31;33.95
25350;BME280;13302;48.796;11.978;2023-04-07T06:37:25;96736.91;;;5.43;34.11
25350;BME280;13302;48.796;11.978;2023-04-07T06:40:13;96737.09;;;5.56;34.08
25350;BME280;13302;48.796;11.978;2023-04-07T06:43:00;96741.28;;;5.70;33.97
25350;BME280;13302;48.796;11.978;2023-04-07T06:45:56;96730.63;;;5.86;33.82
25350;BME280;13302;48.796;11.978;2023-04-07T06:48:43;96739.19;;;6.02;33.68
25350;BME280;13302;48.796;11.978;2023-04-07T06:51:31;96734.69;;;6.14;33.42
25350;BME280;13302;48.796;11.978;2023-04-07T06:54:18;96732.25;;;6.30;33.57
25350;BME280;13302;48.796;11.978;2023-04-07T06:57:05;96731.25;;;6.43;33.46
25350;BME280;13302;48.796;11.978;2023-04-07T06:59:57;96731.00;;;6.57;33.16
25350;BME280;13302;48.796;11.978;2023-04-07T07:02:44;96729.19;;;6.69;33.40
25350;BME280;13302;48.796;11.978;2023-04-07T07:05:32;96736.44;;;6.82;33.24
25350;BME280;13302;48.796;11.978;2023-04-07T07:08:19;96726.34;;;6.95;33.29
25350;BME280;13302;48.796;11.978;2023-04-07T07:11:06;96730.47;;;7.10;33.34
25350;BME280;13302;48.796;11.978;2023-04-07T07:13:53;96725.53;;;7.24;33.18
25350;BME280;13302;48.796;11.978;2023-04-07T07:16:41;96729.38;;;7.31;33.30
25350;BME280;13302;48.796;11.978;2023-04-07T07:19:28;96729.16;;;7.45;33.15
25350;BME280;13302;48.796;11.978;2023-04-07T07:22:15;96730.06;;;7.58;33.28
25350;BME280;13302;48.796;11.978;2023-04-07T07:25:02;96734.00;;;7.69;33.14
25350;BME280;13302;48.796;11.978;2023-04-07T07:27:49;96722.75;;;7.82;32.97
25350;BME280;13302;48.796;11.978;2023-04-07T07:30:39;96729.31;;;7.90;32.91
25350;BME280;13302;48.796;11.978;2023-04-07T07:33:29;96732.91;;;8.03;32.80
25350;BME280;13302;48.796;11.978;2023-04-07T07:36:16;96728.47;;;8.10;32.72
25350;BME280;13302;48.796;11.978;2023-04-07T07:39:03;96735.25;;;8.13;32.76
25350;BME280;13302;48.796;11.978;2023-04-07T07:41:51;96735.03;;;8.18;32.76
25350;BME280;13302;48.796;11.978;2023-04-07T07:44:38;96731.28;;;8.22;32.72
25350;BME280;13302;48.796;11.978;2023-04-07T07:47:26;96736.34;;;8.32;32.61
25350;BME280;13302;48.796;11.978;2023-04-07T07:50:13;96729.94;;;8.41;32.64
25350;BME280;13302;48.796;11.978;2023-04-07T07:53:00;96729.28;;;8.44;32.65
25350;BME280;13302;48.796;11.978;2023-04-07T07:55:47;96734.38;;;8.54;32.44
25350;BME280;13302;48.796;11.978;2023-04-07T07:58:34;96736.22;;;8.62;32.49
25350;BME280;13302;48.796;11.978;2023-04-07T08:01:21;96730.19;;;8.68;32.47
25350;BME280;13302;48.796;11.978;2023-04-07T08:04:08;96726.16;;;8.78;32.39
25350;BME280;13302;48.796;11.978;2023-04-07T08:06:55;96728.91;;;8.78;32.30
25350;BME280;13302;48.796;11.978;2023-04-07T08:09:42;96723.97;;;8.84;32.07
25350;BME280;13302;48.796;11.978;2023-04-07T08:12:29;96719.06;;;8.89;32.17
25350;BME280;13302;48.796;11.978;2023-04-07T08:15:16;96712.84;;;8.92;32.10
25350;BME280;13302;48.796;11.978;2023-04-07T08:18:03;96717.22;;;8.93;32.31
25350;BME280;13302;48.796;11.978;2023-04-07T08:20:52;96716.97;;;8.98;32.27
25350;BME280;13302;48.796;11.978;2023-04-07T08:23:39;96719.88;;;9.02;32.07
25350;BME280;13302;48.796;11.978;2023-04-07T08:26:26;96723.88;;;9.04;32.23
25350;BME280;13302;48.796;11.978;2023-04-07T08:29:14;96728.81;;;9.11;32.17
25350;BME280;13302;48.796;11.978;2023-04-07T08:32:01;96726.97;;;9.15;32.25
25350;BME280;13302;48.796;11.978;2023-04-07T08:34:48;96724.47;;;9.22;32.37
25350;BME280;13302;48.796;11.978;2023-04-07T08:37:36;96728.13;;;9.26;32.35
25350;BME280;13302;48.796;11.978;2023-04-07T08:40:23;96726.31;;;9.30;32.59
25350;BME280;13302;48.796;11.978;2023-04-07T08:43:11;96723.75;;;9.37;32.49
25350;BME280;13302;48.796;11.978;2023-04-07T08:45:59;96727.88;;;9.43;32.43
25350;BME280;13302;48.796;11.978;2023-04-07T08:48:50;96723.41;;;9.51;32.16
25350;BME280;13302;48.796;11.978;2023-04-07T08:51:43;96722.03;;;9.57;32.41
25350;BME280;13302;48.796;11.978;2023-04-07T08:54:30;96720.66;;;9.63;32.39
25350;BME280;13302;48.796;11.978;2023-04-07T08:57:19;96712.47;;;9.66;32.10
25350;BME280;13302;48.796;11.978;2023-04-07T09:00:07;96715.44;;;9.74;32.20
25350;BME280;13302;48.796;11.978;2023-04-07T09:02:54;96713.59;;;9.78;32.14
25350;BME280;13302;48.796;11.978;2023-04-07T09:05:45;96710.13;;;9.81;31.88
25350;BME280;13302;48.796;11.978;2023-04-07T09:08:33;96719.31;;;9.85;31.99
25350;BME280;13302;48.796;11.978;2023-04-07T09:11:20;96725.75;;;9.89;31.94
25350;BME280;13302;48.796;11.978;2023-04-07T09:14:07;96718.38;;;9.93;31.70
25350;BME280;13302;48.796;11.978;2023-04-07T09:16:54;96710.97;;;9.97;31.82
25350;BME280;13302;48.796;11.978;2023-04-07T09:19:42;96704.78;;;10.00;31.92
25350;BME280;13302;48.796;11.978;2023-04-07T09:22:42;96717.16;;;10.06;31.97
25350;BME280;13302;48.796;11.978;2023-04-07T09:25:29;96715.78;;;10.12;32.00
25350;BME280;13302;48.796;11.978;2023-04-07T09:28:16;96707.59;;;10.16;31.83
25350;BME280;13302;48.796;11.978;2023-04-07T09:31:03;96707.78;;;10.23;31.85
25350;BME280;13302;48.796;11.978;2023-04-07T09:33:50;96704.44;;;10.29;31.65
25350;BME280;13302;48.796;11.978;2023-04-07T09:36:40;96704.63;;;10.36;31.39
25350;BME280;13302;48.796;11.978;2023-04-07T09:39:28;96705.59;;;10.44;31.31
25350;BME280;13302;48.796;11.978;2023-04-07T09:42:15;96704.97;;;10.50;31.41
25350;BME280;13302;48.796;11.978;2023-04-07T09:45:02;96706.34;;;10.56;31.24
25350;BME280;13302;48.796;11.978;2023-04-07T09:47:50;96700.13;;;10.59;31.11
25350;BME280;13302;48.796;11.978;2023-04-07T09:50:40;96701.47;;;10.66;30.88
25350;BME280;13302;48.796;11.978;2023-04-07T09:53:44;96698.56;;;10.74;31.18
25350;BME280;13302;48.796;11.978;2023-04-07T09:56:34;96699.53;;;10.82;30.96
25350;BME280;13302;48.796;11.978;2023-04-07T09:59:22;96693.34;;;10.88;30.69
25350;BME280;13302;48.796;11.978;2023-04-07T10:02:11;96690.34;;;10.93;30.58
25350;BME280;13302;48.796;11.978;2023-04-07T10:04:58;96689.25;;;10.98;30.65
25350;BME280;13302;48.796;11.978;2023-04-07T10:07:45;96684.63;;;11.02;30.35
25350;BME280;13302;48.796;11.978;2023-04-07T10:10:34;96687.13;;;11.07;30.35
25350;BME280;13302;48.796;11.978;2023-04-07T10:13:22;96678.09;;;11.10;30.09
25350;BME280;13302;48.796;11.978;2023-04-07T10:16:10;96683.28;;;11.12;30.25
25350;BME280;13302;48.796;11.978;2023-04-07T10:18:58;96688.91;;;11.15;30.01
25350;BME280;13302;48.796;11.978;2023-04-07T10:21:45;96685.41;;;11.18;30.22
25350;BME280;13302;48.796;11.978;2023-04-07T10:24:55;96679.88;;;11.18;29.92
25350;BME280;13302;48.796;11.978;2023-04-07T10:27:48;96683.19;;;11.24;29.98
25350;BME280;13302;48.796;11.978;2023-04-07T10:30:37;96679.31;;;11.28;30.37
25350;BME280;13302;48.796;11.978;2023-04-07T10:33:47;96675.03;;;11.31;30.37
25350;BME280;13302;48.796;11.978;2023-04-07T10:37:10;96680.28;;;11.36;30.25
25350;BME280;13302;48.796;11.978;2023-04-07T10:43:06;96677.03;;;11.49;30.14
25350;BME280;13302;48.796;11.978;2023-04-07T10:45:57;96680.78;;;11.57;30.05
25350;BME280;13302;48.796;11.978;2023-04-07T10:49:08;96680.88;;;11.61;30.02
25350;BME280;13302;48.796;11.978;2023-04-07T10:55:36;96672.44;;;11.73;29.72
25350;BME280;13302;48.796;11.978;2023-04-07T10:58:27;96678.88;;;11.77;29.48
25350;BME280;13302;48.796;11.978;2023-04-07T11:01:16;96675.78;;;11.82;29.36
25350;BME280;13302;48.796;11.978;2023-04-07T11:04:04;96662.81;;;11.86;29.66
25350;BME280;13302;48.796;11.978;2023-04-07T11:06:53;96672.44;;;11.92;29.30
25350;BME280;13302;48.796;11.978;2023-04-07T11:09:40;96670.56;;;11.96;29.31
25350;BME280;13302;48.796;11.978;2023-04-07T11:12:27;96669.38;;;11.97;29.39
25350;BME280;13302;48.796;11.978;2023-04-07T11:15:20;96671.84;;;12.02;29.19
25350;BME280;13302;48.796;11.978;2023-04-07T11:18:10;96672.28;;;12.04;29.16
25350;BME280;13302;48.796;11.978;2023-04-07T11:20:57;96659.66;;;12.07;28.83
25350;BME280;13302;48.796;11.978;2023-04-07T11:23:45;96662.09;;;12.08;29.14
25350;BME280;13302;48.796;11.978;2023-04-07T11:26:38;96662.88;;;12.09;29.03
25350;BME280;13302;48.796;11.978;2023-04-07T11:29:33;96659.75;;;12.10;29.23
25350;BME280;13302;48.796;11.978;2023-04-07T11:32:23;96663.25;;;12.07;29.15
25350;BME280;13302;48.796;11.978;2023-04-07T11:35:15;96667.28;;;12.10;28.65
25350;BME280;13302;48.796;11.978;2023-04-07T11:38:03;96655.00;;;12.11;28.58
25350;BME280;13302;48.796;11.978;2023-04-07T11:40:50;96655.81;;;12.11;28.47
25350;BME280;13302;48.796;11.978;2023-04-07T11:43:37;96655.44;;;12.13;28.52
25350;BME280;13302;48.796;11.978;2023-04-07T11:46:27;96655.38;;;12.09;28.73
25350;BME280;13302;48.796;11.978;2023-04-07T11:49:14;96654.13;;;12.07;28.46
25350;BME280;13302;48.796;11.978;2023-04-07T11:52:04;96652.97;;;12.08;28.22
25350;BME280;13302;48.796;11.978;2023-04-07T11:54:52;96647.78;;;12.06;28.44
25350;BME280;13302;48.796;11.978;2023-04-07T11:57:39;96649.69;;;12.02;28.66
25350;BME280;13302;48.796;11.978;2023-04-07T12:00:26;96646.50;;;12.00;28.63
25350;BME280;13302;48.796;11.978;2023-04-07T12:03:14;96648.03;;;11.98;28.66
25350;BME280;13302;48.796;11.978;2023-04-07T12:06:03;96649.53;;;11.95;28.59
25350;BME280;13302;48.796;11.978;2023-04-07T12:08:50;96644.38;;;11.93;28.33
25350;BME280;13302;48.796;11.978;2023-04-07T12:11:48;96649.41;;;11.88;28.21
25350;BME280;13302;48.796;11.978;2023-04-07T12:14:36;96650.56;;;11.87;28.66
25350;BME280;13302;48.796;11.978;2023-04-07T12:17:24;96649.69;;;11.83;28.37
25350;BME280;13302;48.796;11.978;2023-04-07T12:20:13;96650.06;;;11.81;28.46
25350;BME280;13302;48.796;11.978;2023-04-07T12:23:00;96656.72;;;11.77;28.55
25350;BME280;13302;48.796;11.978;2023-04-07T12:25:47;96658.66;;;11.76;28.38
25350;BME280;13302;48.796;11.978;2023-04-07T12:28:34;96658.94;;;11.71;28.58
25350;BME280;13302;48.796;11.978;2023-04-07T12:31:21;96652.97;;;11.69;28.54
25350;BME280;13302;48.796;11.978;2023-04-07T12:34:08;96653.69;;;11.66;28.24
25350;BME280;13302;48.796;11.978;2023-04-07T12:36:55;96650.84;;;11.63;28.11
25350;BME280;13302;48.796;11.978;2023-04-07T12:39:42;96651.22;;;11.61;28.30
25350;BME280;13302;48.796;11.978;2023-04-07T12:42:29;96651.59;;;11.60;28.57
25350;BME280;13302;48.796;11.978;2023-04-07T12:45:16;96648.75;;;11.56;28.64
25350;BME280;13302;48.796;11.978;2023-04-07T12:48:03;96644.44;;;11.59;28.55
25350;BME280;13302;48.796;11.978;2023-04-07T12:50:51;96638.81;;;11.55;28.34
25350;BME280;13302;48.796;11.978;2023-04-07T12:53:38;96646.78;;;11.57;28.33
25350;BME280;13302;48.796;11.978;2023-04-07T12:56:25;96640.88;;;11.58;28.42
25350;BME280;13302;48.796;11.978;2023-04-07T12:59:13;96644.78;;;11.57;28.71
25350;BME280;13302;48.796;11.978;2023-04-07T13:02:00;96644.09;;;11.60;28.58
25350;BME280;13302;48.796;11.978;2023-04-07T13:04:48;96647.28;;;11.62;28.12
25350;BME280;13302;48.796;11.978;2023-04-07T13:07:34;96644.97;;;11.64;28.08
25350;BME280;13302;48.796;11.978;2023-04-07T13:10:22;96647.34;;;11.66;28.24
25350;BME280;13302;48.796;11.978;2023-04-07T13:13:09;96641.09;;;11.69;28.07
25350;BME280;13302;48.796;11.978;2023-04-07T13:15:56;96644.31;;;11.71;28.46
25350;BME280;13302;48.796;11.978;2023-04-07T13:18:43;96647.53;;;11.73;28.17
25350;BME280;13302;48.796;11.978;2023-04-07T13:21:31;96655.84;;;11.73;28.24
25350;BME280;13302;48.796;11.978;2023-04-07T13:24:30;96651.06;;;11.73;28.29
25350;BME280;13302;48.796;11.978;2023-04-07T13:27:17;96649.09;;;11.74;28.00
25350;BME280;13302;48.796;11.978;2023-04-07T13:30:05;96644.75;;;11.73;28.12
25350;BME280;13302;48.796;11.978;2023-04-07T13:32:52;96647.88;;;11.71;27.95
25350;BME280;13302;48.796;11.978;2023-04-07T13:35:39;96647.06;;;11.71;28.13
25350;BME280;13302;48.796;11.978;2023-04-07T13:38:26;96639.56;;;11.71;28.08
25350;BME280;13302;48.796;11.978;2023-04-07T13:41:13;96640.38;;;11.72;27.88
25350;BME280;13302;48.796;11.978;2023-04-07T13:44:00;96636.78;;;11.71;28.02
25350;BME280;13302;48.796;11.978;2023-04-07T13:46:47;96626.53;;;11.72;28.16
25350;BME280;13302;48.796;11.978;2023-04-07T13:49:34;96641.97;;;11.73;27.78
25350;BME280;13302;48.796;11.978;2023-04-07T13:52:22;96640.00;;;11.73;28.20
25350;BME280;13302;48.796;11.978;2023-04-07T13:55:09;96633.28;;;11.74;28.13
25350;BME280;13302;48.796;11.978;2023-04-07T13:57:56;96634.44;;;11.73;28.00
25350;BME280;13302;48.796;11.978;2023-04-07T14:00:43;96639.63;;;11.75;28.19
25350;BME280;13302;48.796;11.978;2023-04-07T14:03:30;96644.38;;;11.74;28.08
25350;BME280;13302;48.796;11.978;2023-04-07T14:06:17;96643.22;;;11.75;27.82
25350;BME280;13302;48.796;11.978;2023-04-07T14:09:08;96642.84;;;11.77;27.72
25350;BME280;13302;48.796;11.978;2023-04-07T14:11:55;96636.50;;;11.76;27.73
25350;BME280;13302;48.796;11.978;2023-04-07T14:14:43;96635.34;;;11.77;27.74
25350;BME280;13302;48.796;11.978;2023-04-07T14:17:30;96629.81;;;11.77;27.89
25350;BME280;13302;48.796;11.978;2023-04-07T14:20:17;96641.25;;;11.76;27.98
25350;BME280;13302;48.796;11.978;2023-04-07T14:23:04;96638.91;;;11.78;27.79
25350;BME280;13302;48.796;11.978;2023-04-07T14:25:51;96636.50;;;11.76;27.73
25350;BME280;13302;48.796;11.978;2023-04-07T14:28:38;96630.97;;;11.76;28.01
25350;BME280;13302;48.796;11.978;2023-04-07T14:31:25;96629.38;;;11.75;27.93
25350;BME280;13302;48.796;11.978;2023-04-07T14:34:12;96626.94;;;11.74;28.02
25350;BME280;13302;48.796;11.978;2023-04-07T14:36:59;96618.63;;;11.74;28.00
25350;BME280;13302;48.796;11.978;2023-04-07T14:39:46;96624.97;;;11.74;27.93
25350;BME280;13302;48.796;11.978;2023-04-07T14:42:48;96626.53;;;11.72;28.06
25350;BME280;13302;48.796;11.978;2023-04-07T14:45:35;96627.75;;;11.74;28.13
25350;BME280;13302;48.796;11.978;2023-04-07T14:48:22;96626.59;;;11.75;28.07
25350;BME280;13302;48.796;11.978;2023-04-07T14:51:10;96623.03;;;11.75;27.77
25350;BME280;13302;48.796;11.978;2023-04-07T14:53:58;96627.41;;;11.76;27.76
25350;BME280;13302;48.796;11.978;2023-04-07T14:56:45;96628.63;;;11.78;28.06
25350;BME280;13302;48.796;11.978;2023-04-07T14:59:32;96627.81;;;11.78;27.95
25350;BME280;13302;48.796;11.978;2023-04-07T15:02:20;96630.59;;;11.78;28.12